Lowland, North Carolina
Current Conditions -  °F | °C
As of 10:56 AM on Friday 19 Dec 2014 (Local Time) from KNBT Reporting Station
Clear Clear  
Wind Chill: 44°   Ceiling: Unl
Heat Index: 49°   Visibility: NA
Dew Point: 30°   Wind: 12mph
Humidity: 48%   Direction: 320°NW
Pressure: 30.15"   Gusts: NA
Location:  35.3°N, 76.56°W
Report Text: KNBT 191556Z AUTO 32010KT CLR 09/M01 A3015 RMK AO2 SLP215 T00941011 PNO $
Loading
Personal Weather Stations






























Interactive Weather Map New forecast layout! Learn more

10-Day Weather Forecast

Advertisements
Track Severe Weather on mobile